sensor_id;sensor_type;location;lat;lon;timestamp;P1;durP1;ratioP1;P2;durP2;ratioP2
79624;SDS011;69101;45.534;10.218;2023-07-20T00:00:58;15.25;;;6.70;;
79624;SDS011;69101;45.534;10.218;2023-07-20T00:03:23;14.73;;;6.95;;
79624;SDS011;69101;45.534;10.218;2023-07-20T00:05:50;15.38;;;7.18;;
79624;SDS011;69101;45.534;10.218;2023-07-20T00:08:16;15.63;;;6.90;;
79624;SDS011;69101;45.534;10.218;2023-07-20T00:10:43;14.32;;;6.72;;
79624;SDS011;69101;45.534;10.218;2023-07-20T00:13:08;13.95;;;6.70;;
79624;SDS011;69101;45.534;10.218;2023-07-20T00:15:34;14.23;;;6.60;;
79624;SDS011;69101;45.534;10.218;2023-07-20T00:18:00;13.95;;;6.65;;
79624;SDS011;69101;45.534;10.218;2023-07-20T00:20:26;13.60;;;6.50;;
79624;SDS011;69101;45.534;10.218;2023-07-20T00:22:51;14.60;;;6.60;;
79624;SDS011;69101;45.534;10.218;2023-07-20T00:25:17;14.80;;;6.40;;
79624;SDS011;69101;45.534;10.218;2023-07-20T00:27:43;14.23;;;6.50;;
79624;SDS011;69101;45.534;10.218;2023-07-20T00:30:08;14.95;;;6.88;;
79624;SDS011;69101;45.534;10.218;2023-07-20T00:32:34;15.18;;;6.63;;
79624;SDS011;69101;45.534;10.218;2023-07-20T00:35:00;14.48;;;6.90;;
79624;SDS011;69101;45.534;10.218;2023-07-20T00:37:25;14.18;;;6.68;;
79624;SDS011;69101;45.534;10.218;2023-07-20T00:39:51;13.18;;;6.65;;
79624;SDS011;69101;45.534;10.218;2023-07-20T00:42:16;13.23;;;6.25;;
79624;SDS011;69101;45.534;10.218;2023-07-20T00:44:42;14.75;;;6.35;;
79624;SDS011;69101;45.534;10.218;2023-07-20T00:47:08;13.48;;;6.30;;
79624;SDS011;69101;45.534;10.218;2023-07-20T00:49:33;15.05;;;6.38;;
79624;SDS011;69101;45.534;10.218;2023-07-20T00:51:59;14.07;;;6.60;;
79624;SDS011;69101;45.534;10.218;2023-07-20T00:54:26;14.75;;;6.45;;
79624;SDS011;69101;45.534;10.218;2023-07-20T00:56:53;13.30;;;6.50;;
79624;SDS011;69101;45.534;10.218;2023-07-20T00:59:19;15.05;;;6.55;;
79624;SDS011;69101;45.534;10.218;2023-07-20T01:01:46;13.63;;;6.50;;
79624;SDS011;69101;45.534;10.218;2023-07-20T01:04:11;14.80;;;6.50;;
79624;SDS011;69101;45.534;10.218;2023-07-20T01:09:13;14.82;;;6.25;;
79624;SDS011;69101;45.534;10.218;2023-07-20T01:11:47;13.10;;;6.10;;
79624;SDS011;69101;45.534;10.218;2023-07-20T01:14:19;13.10;;;6.03;;
79624;SDS011;69101;45.534;10.218;2023-07-20T01:16:45;13.85;;;6.10;;
79624;SDS011;69101;45.534;10.218;2023-07-20T01:19:10;15.63;;;6.30;;
79624;SDS011;69101;45.534;10.218;2023-07-20T01:21:40;13.70;;;6.45;;
79624;SDS011;69101;45.534;10.218;2023-07-20T01:26:53;14.13;;;6.05;;
79624;SDS011;69101;45.534;10.218;2023-07-20T01:32:09;13.40;;;6.45;;
79624;SDS011;69101;45.534;10.218;2023-07-20T01:34:35;13.35;;;6.18;;
79624;SDS011;69101;45.534;10.218;2023-07-20T01:37:02;14.82;;;6.63;;
79624;SDS011;69101;45.534;10.218;2023-07-20T01:39:28;14.13;;;6.45;;
79624;SDS011;69101;45.534;10.218;2023-07-20T01:41:55;13.75;;;6.70;;
79624;SDS011;69101;45.534;10.218;2023-07-20T01:44:20;12.95;;;6.60;;
79624;SDS011;69101;45.534;10.218;2023-07-20T01:46:46;13.15;;;6.32;;
79624;SDS011;69101;45.534;10.218;2023-07-20T01:49:11;14.18;;;6.25;;
79624;SDS011;69101;45.534;10.218;2023-07-20T01:51:37;13.52;;;6.25;;
79624;SDS011;69101;45.534;10.218;2023-07-20T01:54:02;13.70;;;5.97;;
79624;SDS011;69101;45.534;10.218;2023-07-20T01:56:27;13.48;;;6.03;;
79624;SDS011;69101;45.534;10.218;2023-07-20T01:58:53;12.85;;;5.43;;
79624;SDS011;69101;45.534;10.218;2023-07-20T02:01:18;13.20;;;6.20;;
79624;SDS011;69101;45.534;10.218;2023-07-20T02:03:43;13.65;;;6.22;;
79624;SDS011;69101;45.534;10.218;2023-07-20T02:06:09;12.02;;;5.72;;
79624;SDS011;69101;45.534;10.218;2023-07-20T02:08:34;13.40;;;6.03;;
79624;SDS011;69101;45.534;10.218;2023-07-20T02:10:59;13.45;;;6.10;;
79624;SDS011;69101;45.534;10.218;2023-07-20T02:13:25;14.48;;;6.05;;
79624;SDS011;69101;45.534;10.218;2023-07-20T02:15:50;13.85;;;6.32;;
79624;SDS011;69101;45.534;10.218;2023-07-20T02:18:16;13.85;;;5.88;;
79624;SDS011;69101;45.534;10.218;2023-07-20T02:20:41;12.45;;;5.82;;
79624;SDS011;69101;45.534;10.218;2023-07-20T02:23:07;14.18;;;5.95;;
79624;SDS011;69101;45.534;10.218;2023-07-20T02:25:33;14.50;;;6.55;;
79624;SDS011;69101;45.534;10.218;2023-07-20T02:27:58;14.13;;;6.35;;
79624;SDS011;69101;45.534;10.218;2023-07-20T02:30:23;13.05;;;5.90;;
79624;SDS011;69101;45.534;10.218;2023-07-20T02:32:49;13.27;;;5.88;;
79624;SDS011;69101;45.534;10.218;2023-07-20T02:35:15;12.32;;;5.95;;
79624;SDS011;69101;45.534;10.218;2023-07-20T02:37:40;12.32;;;5.75;;
79624;SDS011;69101;45.534;10.218;2023-07-20T02:40:06;12.23;;;5.80;;
79624;SDS011;69101;45.534;10.218;2023-07-20T02:42:32;12.88;;;5.95;;
79624;SDS011;69101;45.534;10.218;2023-07-20T02:44:58;13.65;;;6.53;;
79624;SDS011;69101;45.534;10.218;2023-07-20T02:47:23;13.77;;;6.40;;
79624;SDS011;69101;45.534;10.218;2023-07-20T02:49:49;12.75;;;6.43;;
79624;SDS011;69101;45.534;10.218;2023-07-20T02:52:14;12.52;;;5.82;;
79624;SDS011;69101;45.534;10.218;2023-07-20T02:54:39;12.90;;;5.90;;
79624;SDS011;69101;45.534;10.218;2023-07-20T02:57:05;13.40;;;6.03;;
79624;SDS011;69101;45.534;10.218;2023-07-20T02:59:31;13.35;;;6.13;;
79624;SDS011;69101;45.534;10.218;2023-07-20T03:01:56;14.23;;;6.07;;
79624;SDS011;69101;45.534;10.218;2023-07-20T03:04:22;14.95;;;6.38;;
79624;SDS011;69101;45.534;10.218;2023-07-20T03:06:49;13.30;;;6.25;;
79624;SDS011;69101;45.534;10.218;2023-07-20T03:09:14;12.65;;;5.97;;
79624;SDS011;69101;45.534;10.218;2023-07-20T03:11:40;12.55;;;5.75;;
79624;SDS011;69101;45.534;10.218;2023-07-20T03:14:06;14.35;;;6.30;;
79624;SDS011;69101;45.534;10.218;2023-07-20T03:16:31;13.15;;;6.03;;
79624;SDS011;69101;45.534;10.218;2023-07-20T03:18:58;12.90;;;5.82;;
79624;SDS011;69101;45.534;10.218;2023-07-20T03:21:25;12.45;;;5.72;;
79624;SDS011;69101;45.534;10.218;2023-07-20T03:23:50;13.23;;;6.28;;
79624;SDS011;69101;45.534;10.218;2023-07-20T03:26:15;13.95;;;6.00;;
79624;SDS011;69101;45.534;10.218;2023-07-20T03:28:41;13.63;;;6.07;;
79624;SDS011;69101;45.534;10.218;2023-07-20T03:31:06;12.13;;;5.97;;
79624;SDS011;69101;45.534;10.218;2023-07-20T03:33:31;12.65;;;5.93;;
79624;SDS011;69101;45.534;10.218;2023-07-20T03:35:58;13.93;;;6.40;;
79624;SDS011;69101;45.534;10.218;2023-07-20T03:38:24;12.88;;;5.68;;
79624;SDS011;69101;45.534;10.218;2023-07-20T03:40:53;11.68;;;5.80;;
79624;SDS011;69101;45.534;10.218;2023-07-20T03:43:23;12.77;;;6.18;;
79624;SDS011;69101;45.534;10.218;2023-07-20T03:45:49;12.65;;;5.95;;
79624;SDS011;69101;45.534;10.218;2023-07-20T03:48:16;13.35;;;6.32;;
79624;SDS011;69101;45.534;10.218;2023-07-20T03:50:46;13.82;;;6.38;;
79624;SDS011;69101;45.534;10.218;2023-07-20T03:53:13;13.35;;;5.97;;
79624;SDS011;69101;45.534;10.218;2023-07-20T03:55:39;14.55;;;6.03;;
79624;SDS011;69101;45.534;10.218;2023-07-20T03:58:06;12.52;;;6.38;;
79624;SDS011;69101;45.534;10.218;2023-07-20T04:00:32;13.82;;;6.00;;
79624;SDS011;69101;45.534;10.218;2023-07-20T04:02:57;13.07;;;6.25;;
79624;SDS011;69101;45.534;10.218;2023-07-20T04:05:24;12.63;;;5.93;;
79624;SDS011;69101;45.534;10.218;2023-07-20T04:07:49;13.57;;;6.70;;
79624;SDS011;69101;45.534;10.218;2023-07-20T04:10:14;13.43;;;5.82;;
79624;SDS011;69101;45.534;10.218;2023-07-20T04:12:40;13.18;;;6.05;;
79624;SDS011;69101;45.534;10.218;2023-07-20T04:15:05;14.25;;;6.40;;
79624;SDS011;69101;45.534;10.218;2023-07-20T04:17:31;11.82;;;5.90;;
79624;SDS011;69101;45.534;10.218;2023-07-20T04:19:56;12.43;;;6.30;;
79624;SDS011;69101;45.534;10.218;2023-07-20T04:22:22;13.20;;;6.40;;
79624;SDS011;69101;45.534;10.218;2023-07-20T04:24:47;12.90;;;5.90;;
79624;SDS011;69101;45.534;10.218;2023-07-20T04:27:12;12.93;;;5.97;;
79624;SDS011;69101;45.534;10.218;2023-07-20T04:29:38;12.50;;;5.90;;
79624;SDS011;69101;45.534;10.218;2023-07-20T04:32:03;12.77;;;6.22;;
79624;SDS011;69101;45.534;10.218;2023-07-20T04:34:29;13.13;;;6.50;;
79624;SDS011;69101;45.534;10.218;2023-07-20T04:36:54;12.75;;;6.40;;
79624;SDS011;69101;45.534;10.218;2023-07-20T04:39:20;13.13;;;6.45;;
79624;SDS011;69101;45.534;10.218;2023-07-20T04:41:45;12.25;;;6.22;;
79624;SDS011;69101;45.534;10.218;2023-07-20T04:44:10;13.55;;;6.50;;
79624;SDS011;69101;45.534;10.218;2023-07-20T04:46:36;13.57;;;6.18;;
79624;SDS011;69101;45.534;10.218;2023-07-20T04:49:01;13.48;;;6.28;;
79624;SDS011;69101;45.534;10.218;2023-07-20T04:51:27;12.68;;;5.88;;
79624;SDS011;69101;45.534;10.218;2023-07-20T04:53:55;11.95;;;5.90;;
79624;SDS011;69101;45.534;10.218;2023-07-20T04:56:21;11.63;;;5.72;;
79624;SDS011;69101;45.534;10.218;2023-07-20T04:58:48;13.82;;;6.10;;
79624;SDS011;69101;45.534;10.218;2023-07-20T05:01:13;13.38;;;6.05;;
79624;SDS011;69101;45.534;10.218;2023-07-20T05:03:39;12.80;;;5.90;;
79624;SDS011;69101;45.534;10.218;2023-07-20T05:06:04;12.50;;;6.00;;
79624;SDS011;69101;45.534;10.218;2023-07-20T05:08:29;13.82;;;5.95;;
79624;SDS011;69101;45.534;10.218;2023-07-20T05:10:55;13.30;;;6.15;;
79624;SDS011;69101;45.534;10.218;2023-07-20T05:13:20;12.98;;;6.00;;
79624;SDS011;69101;45.534;10.218;2023-07-20T05:15:45;12.25;;;5.68;;
79624;SDS011;69101;45.534;10.218;2023-07-20T05:18:11;12.60;;;5.95;;
79624;SDS011;69101;45.534;10.218;2023-07-20T05:20:37;12.68;;;5.60;;
79624;SDS011;69101;45.534;10.218;2023-07-20T05:23:02;14.07;;;6.40;;
79624;SDS011;69101;45.534;10.218;2023-07-20T05:25:28;12.65;;;6.07;;
79624;SDS011;69101;45.534;10.218;2023-07-20T05:27:53;12.63;;;5.65;;
79624;SDS011;69101;45.534;10.218;2023-07-20T05:30:20;12.02;;;5.50;;
79624;SDS011;69101;45.534;10.218;2023-07-20T05:32:46;17.48;;;7.45;;
79624;SDS011;69101;45.534;10.218;2023-07-20T05:37:42;16.48;;;8.85;;
79624;SDS011;69101;45.534;10.218;2023-07-20T05:40:07;16.20;;;8.00;;
79624;SDS011;69101;45.534;10.218;2023-07-20T05:42:33;19.48;;;10.07;;
79624;SDS011;69101;45.534;10.218;2023-07-20T05:44:59;18.02;;;9.55;;
79624;SDS011;69101;45.534;10.218;2023-07-20T05:47:24;22.17;;;10.20;;
79624;SDS011;69101;45.534;10.218;2023-07-20T05:49:49;21.10;;;10.93;;
79624;SDS011;69101;45.534;10.218;2023-07-20T05:52:15;20.08;;;10.65;;
79624;SDS011;69101;45.534;10.218;2023-07-20T05:54:40;19.45;;;10.43;;
79624;SDS011;69101;45.534;10.218;2023-07-20T05:57:06;18.27;;;9.32;;
79624;SDS011;69101;45.534;10.218;2023-07-20T05:59:32;19.00;;;9.15;;
79624;SDS011;69101;45.534;10.218;2023-07-20T06:01:58;21.35;;;11.48;;
79624;SDS011;69101;45.534;10.218;2023-07-20T06:04:23;22.52;;;11.35;;
79624;SDS011;69101;45.534;10.218;2023-07-20T06:06:49;19.88;;;11.93;;
79624;SDS011;69101;45.534;10.218;2023-07-20T06:09:14;23.02;;;13.75;;
79624;SDS011;69101;45.534;10.218;2023-07-20T06:11:39;22.15;;;13.30;;
79624;SDS011;69101;45.534;10.218;2023-07-20T06:14:05;24.05;;;14.15;;
79624;SDS011;69101;45.534;10.218;2023-07-20T06:16:30;25.02;;;14.55;;
79624;SDS011;69101;45.534;10.218;2023-07-20T06:18:56;27.75;;;16.17;;
79624;SDS011;69101;45.534;10.218;2023-07-20T06:21:22;26.30;;;16.85;;
79624;SDS011;69101;45.534;10.218;2023-07-20T06:23:47;26.92;;;16.90;;
79624;SDS011;69101;45.534;10.218;2023-07-20T06:26:12;25.55;;;15.75;;
79624;SDS011;69101;45.534;10.218;2023-07-20T06:28:38;28.42;;;18.45;;
79624;SDS011;69101;45.534;10.218;2023-07-20T06:31:03;27.60;;;16.90;;
79624;SDS011;69101;45.534;10.218;2023-07-20T06:33:29;25.33;;;15.75;;
79624;SDS011;69101;45.534;10.218;2023-07-20T06:35:55;24.35;;;15.48;;
79624;SDS011;69101;45.534;10.218;2023-07-20T06:38:22;26.65;;;16.88;;
79624;SDS011;69101;45.534;10.218;2023-07-20T06:40:48;27.13;;;17.60;;
79624;SDS011;69101;45.534;10.218;2023-07-20T06:43:14;25.80;;;15.93;;
79624;SDS011;69101;45.534;10.218;2023-07-20T06:45:39;27.98;;;17.38;;
79624;SDS011;69101;45.534;10.218;2023-07-20T06:48:05;26.65;;;16.77;;
79624;SDS011;69101;45.534;10.218;2023-07-20T06:50:31;30.48;;;17.77;;
79624;SDS011;69101;45.534;10.218;2023-07-20T06:52:56;33.42;;;18.05;;
79624;SDS011;69101;45.534;10.218;2023-07-20T06:55:22;27.60;;;16.98;;
79624;SDS011;69101;45.534;10.218;2023-07-20T06:57:47;26.08;;;15.13;;
79624;SDS011;69101;45.534;10.218;2023-07-20T07:00:13;22.88;;;14.15;;
79624;SDS011;69101;45.534;10.218;2023-07-20T07:02:39;23.02;;;14.23;;
79624;SDS011;69101;45.534;10.218;2023-07-20T07:05:04;24.52;;;13.40;;
79624;SDS011;69101;45.534;10.218;2023-07-20T07:07:31;26.33;;;13.07;;
79624;SDS011;69101;45.534;10.218;2023-07-20T07:09:57;22.88;;;14.10;;
79624;SDS011;69101;45.534;10.218;2023-07-20T07:12:22;23.42;;;13.55;;
79624;SDS011;69101;45.534;10.218;2023-07-20T07:14:47;22.52;;;14.02;;
79624;SDS011;69101;45.534;10.218;2023-07-20T07:17:13;24.52;;;13.90;;
79624;SDS011;69101;45.534;10.218;2023-07-20T07:19:39;25.05;;;15.35;;
79624;SDS011;69101;45.534;10.218;2023-07-20T07:22:05;23.88;;;14.63;;
79624;SDS011;69101;45.534;10.218;2023-07-20T07:24:31;27.52;;;14.45;;
79624;SDS011;69101;45.534;10.218;2023-07-20T07:27:01;24.13;;;15.13;;
79624;SDS011;69101;45.534;10.218;2023-07-20T07:29:27;25.00;;;15.27;;
79624;SDS011;69101;45.534;10.218;2023-07-20T07:31:52;23.60;;;13.98;;
79624;SDS011;69101;45.534;10.218;2023-07-20T07:34:18;22.92;;;13.63;;
79624;SDS011;69101;45.534;10.218;2023-07-20T07:36:43;26.48;;;14.80;;
79624;SDS011;69101;45.534;10.218;2023-07-20T07:39:10;25.20;;;15.70;;
79624;SDS011;69101;45.534;10.218;2023-07-20T07:41:35;22.13;;;13.52;;
79624;SDS011;69101;45.534;10.218;2023-07-20T07:44:00;27.27;;;15.95;;
79624;SDS011;69101;45.534;10.218;2023-07-20T07:46:26;25.00;;;14.52;;
79624;SDS011;69101;45.534;10.218;2023-07-20T07:48:51;24.55;;;14.70;;
79624;SDS011;69101;45.534;10.218;2023-07-20T07:51:16;28.58;;;16.27;;
79624;SDS011;69101;45.534;10.218;2023-07-20T07:53:42;25.15;;;14.32;;
79624;SDS011;69101;45.534;10.218;2023-07-20T07:56:08;26.50;;;16.50;;
79624;SDS011;69101;45.534;10.218;2023-07-20T07:58:34;28.02;;;16.35;;
79624;SDS011;69101;45.534;10.218;2023-07-20T08:00:59;27.42;;;15.93;;
79624;SDS011;69101;45.534;10.218;2023-07-20T08:03:25;28.33;;;18.00;;
79624;SDS011;69101;45.534;10.218;2023-07-20T08:05:51;26.63;;;17.25;;
79624;SDS011;69101;45.534;10.218;2023-07-20T08:08:18;28.42;;;16.40;;
79624;SDS011;69101;45.534;10.218;2023-07-20T08:10:44;28.58;;;17.58;;
79624;SDS011;69101;45.534;10.218;2023-07-20T08:13:09;25.95;;;16.40;;
79624;SDS011;69101;45.534;10.218;2023-07-20T08:15:35;27.85;;;15.02;;
79624;SDS011;69101;45.534;10.218;2023-07-20T08:18:00;22.15;;;12.45;;
79624;SDS011;69101;45.534;10.218;2023-07-20T08:20:25;24.48;;;15.75;;
79624;SDS011;69101;45.534;10.218;2023-07-20T08:22:52;27.63;;;16.20;;
79624;SDS011;69101;45.534;10.218;2023-07-20T08:25:21;26.15;;;16.33;;
79624;SDS011;69101;45.534;10.218;2023-07-20T08:27:46;25.05;;;15.23;;
79624;SDS011;69101;45.534;10.218;2023-07-20T08:30:12;28.33;;;17.10;;
79624;SDS011;69101;45.534;10.218;2023-07-20T08:32:38;25.55;;;16.45;;
79624;SDS011;69101;45.534;10.218;2023-07-20T08:35:03;27.88;;;16.23;;
79624;SDS011;69101;45.534;10.218;2023-07-20T08:37:29;23.13;;;14.60;;
79624;SDS011;69101;45.534;10.218;2023-07-20T08:39:54;22.45;;;14.00;;
79624;SDS011;69101;45.534;10.218;2023-07-20T08:42:20;24.25;;;13.57;;
79624;SDS011;69101;45.534;10.218;2023-07-20T08:44:47;24.98;;;14.35;;
79624;SDS011;69101;45.534;10.218;2023-07-20T08:47:13;25.88;;;14.77;;
79624;SDS011;69101;45.534;10.218;2023-07-20T08:49:41;24.33;;;14.18;;
79624;SDS011;69101;45.534;10.218;2023-07-20T08:52:06;24.60;;;14.77;;
79624;SDS011;69101;45.534;10.218;2023-07-20T08:54:32;26.80;;;16.48;;
79624;SDS011;69101;45.534;10.218;2023-07-20T08:57:01;26.60;;;15.63;;
79624;SDS011;69101;45.534;10.218;2023-07-20T08:59:28;24.63;;;15.63;;
79624;SDS011;69101;45.534;10.218;2023-07-20T09:01:54;25.10;;;14.20;;
79624;SDS011;69101;45.534;10.218;2023-07-20T09:04:21;23.98;;;13.13;;
79624;SDS011;69101;45.534;10.218;2023-07-20T09:06:47;21.40;;;12.73;;
79624;SDS011;69101;45.534;10.218;2023-07-20T09:09:14;23.40;;;13.63;;
79624;SDS011;69101;45.534;10.218;2023-07-20T09:11:41;26.08;;;13.00;;
79624;SDS011;69101;45.534;10.218;2023-07-20T09:14:06;22.77;;;12.73;;
79624;SDS011;69101;45.534;10.218;2023-07-20T09:16:46;22.75;;;12.38;;
79624;SDS011;69101;45.534;10.218;2023-07-20T09:19:14;25.20;;;13.25;;
79624;SDS011;69101;45.534;10.218;2023-07-20T09:21:40;21.02;;;12.10;;
79624;SDS011;69101;45.534;10.218;2023-07-20T09:24:06;23.35;;;13.48;;
79624;SDS011;69101;45.534;10.218;2023-07-20T09:26:31;23.02;;;12.02;;
79624;SDS011;69101;45.534;10.218;2023-07-20T09:29:05;20.10;;;10.57;;
79624;SDS011;69101;45.534;10.218;2023-07-20T09:31:33;22.58;;;12.75;;
79624;SDS011;69101;45.534;10.218;2023-07-20T09:33:59;22.02;;;11.55;;
79624;SDS011;69101;45.534;10.218;2023-07-20T09:36:26;20.92;;;11.88;;
79624;SDS011;69101;45.534;10.218;2023-07-20T09:38:52;22.60;;;12.35;;
79624;SDS011;69101;45.534;10.218;2023-07-20T09:41:18;20.65;;;12.32;;
79624;SDS011;69101;45.534;10.218;2023-07-20T09:43:43;23.67;;;11.80;;
79624;SDS011;69101;45.534;10.218;2023-07-20T09:46:10;23.20;;;12.77;;
79624;SDS011;69101;45.534;10.218;2023-07-20T09:48:35;20.50;;;11.65;;
79624;SDS011;69101;45.534;10.218;2023-07-20T09:51:01;22.58;;;13.13;;
79624;SDS011;69101;45.534;10.218;2023-07-20T09:53:26;22.85;;;11.07;;
79624;SDS011;69101;45.534;10.218;2023-07-20T09:55:53;19.70;;;11.65;;
79624;SDS011;69101;45.534;10.218;2023-07-20T09:58:19;20.98;;;10.27;;
79624;SDS011;69101;45.534;10.218;2023-07-20T10:00:45;21.08;;;10.05;;
79624;SDS011;69101;45.534;10.218;2023-07-20T10:03:19;18.80;;;9.82;;
79624;SDS011;69101;45.534;10.218;2023-07-20T10:08:23;20.77;;;10.05;;
79624;SDS011;69101;45.534;10.218;2023-07-20T10:10:49;17.20;;;9.27;;
79624;SDS011;69101;45.534;10.218;2023-07-20T10:13:17;21.45;;;10.57;;
79624;SDS011;69101;45.534;10.218;2023-07-20T10:15:50;22.20;;;10.40;;
79624;SDS011;69101;45.534;10.218;2023-07-20T10:18:28;23.48;;;11.50;;
79624;SDS011;69101;45.534;10.218;2023-07-20T10:20:56;22.80;;;10.85;;
79624;SDS011;69101;45.534;10.218;2023-07-20T10:23:24;21.73;;;11.35;;
79624;SDS011;69101;45.534;10.218;2023-07-20T10:25:50;20.80;;;10.98;;
79624;SDS011;69101;45.534;10.218;2023-07-20T10:28:15;18.85;;;9.85;;
79624;SDS011;69101;45.534;10.218;2023-07-20T10:30:41;18.40;;;10.00;;
79624;SDS011;69101;45.534;10.218;2023-07-20T10:33:08;19.85;;;11.45;;
79624;SDS011;69101;45.534;10.218;2023-07-20T10:41:20;22.45;;;11.27;;
79624;SDS011;69101;45.534;10.218;2023-07-20T10:43:49;22.10;;;11.10;;
79624;SDS011;69101;45.534;10.218;2023-07-20T10:46:34;21.05;;;9.80;;
79624;SDS011;69101;45.534;10.218;2023-07-20T10:49:12;17.40;;;9.30;;
79624;SDS011;69101;45.534;10.218;2023-07-20T10:51:43;23.92;;;11.25;;
79624;SDS011;69101;45.534;10.218;2023-07-20T10:56:41;19.80;;;9.70;;
79624;SDS011;69101;45.534;10.218;2023-07-20T11:01:48;18.70;;;11.10;;
79624;SDS011;69101;45.534;10.218;2023-07-20T11:04:16;20.02;;;10.07;;
79624;SDS011;69101;45.534;10.218;2023-07-20T11:06:45;18.42;;;9.50;;
79624;SDS011;69101;45.534;10.218;2023-07-20T11:09:12;19.23;;;9.65;;
79624;SDS011;69101;45.534;10.218;2023-07-20T11:11:42;19.63;;;10.07;;
79624;SDS011;69101;45.534;10.218;2023-07-20T11:14:10;21.95;;;12.20;;
79624;SDS011;69101;45.534;10.218;2023-07-20T11:16:46;21.40;;;11.02;;
79624;SDS011;69101;45.534;10.218;2023-07-20T11:19:19;19.83;;;10.27;;
79624;SDS011;69101;45.534;10.218;2023-07-20T11:21:52;21.13;;;10.93;;
79624;SDS011;69101;45.534;10.218;2023-07-20T11:24:19;20.10;;;11.00;;
79624;SDS011;69101;45.534;10.218;2023-07-20T11:29:15;17.65;;;9.25;;
79624;SDS011;69101;45.534;10.218;2023-07-20T11:31:42;17.73;;;9.20;;
79624;SDS011;69101;45.534;10.218;2023-07-20T11:34:12;21.42;;;10.25;;
79624;SDS011;69101;45.534;10.218;2023-07-20T11:36:42;20.52;;;9.80;;
79624;SDS011;69101;45.534;10.218;2023-07-20T11:39:09;20.40;;;9.48;;
79624;SDS011;69101;45.534;10.218;2023-07-20T11:41:35;20.08;;;9.05;;
79624;SDS011;69101;45.534;10.218;2023-07-20T11:44:01;18.27;;;9.77;;
79624;SDS011;69101;45.534;10.218;2023-07-20T11:46:27;19.25;;;8.90;;
79624;SDS011;69101;45.534;10.218;2023-07-20T11:49:00;18.13;;;10.38;;
79624;SDS011;69101;45.534;10.218;2023-07-20T11:51:28;21.75;;;9.93;;
79624;SDS011;69101;45.534;10.218;2023-07-20T11:53:55;18.13;;;9.40;;
79624;SDS011;69101;45.534;10.218;2023-07-20T11:56:22;18.25;;;9.30;;
79624;SDS011;69101;45.534;10.218;2023-07-20T11:58:48;17.88;;;9.25;;
79624;SDS011;69101;45.534;10.218;2023-07-20T12:01:13;19.65;;;10.30;;
79624;SDS011;69101;45.534;10.218;2023-07-20T12:03:39;20.60;;;10.02;;
79624;SDS011;69101;45.534;10.218;2023-07-20T12:06:09;19.50;;;9.48;;
79624;SDS011;69101;45.534;10.218;2023-07-20T12:08:42;19.25;;;10.23;;
79624;SDS011;69101;45.534;10.218;2023-07-20T12:11:09;21.08;;;11.82;;
79624;SDS011;69101;45.534;10.218;2023-07-20T12:13:44;19.38;;;10.00;;
79624;SDS011;69101;45.534;10.218;2023-07-20T12:16:19;18.60;;;9.93;;
79624;SDS011;69101;45.534;10.218;2023-07-20T12:18:44;21.17;;;10.38;;
79624;SDS011;69101;45.534;10.218;2023-07-20T12:21:10;19.65;;;9.93;;
79624;SDS011;69101;45.534;10.218;2023-07-20T12:23:39;18.33;;;9.63;;
79624;SDS011;69101;45.534;10.218;2023-07-20T12:26:10;19.52;;;9.55;;
79624;SDS011;69101;45.534;10.218;2023-07-20T12:28:39;21.33;;;10.55;;
79624;SDS011;69101;45.534;10.218;2023-07-20T12:31:06;16.92;;;8.48;;
79624;SDS011;69101;45.534;10.218;2023-07-20T12:33:32;17.65;;;9.07;;
79624;SDS011;69101;45.534;10.218;2023-07-20T12:35:57;18.35;;;8.88;;
79624;SDS011;69101;45.534;10.218;2023-07-20T12:38:24;19.02;;;9.68;;
79624;SDS011;69101;45.534;10.218;2023-07-20T12:40:50;17.20;;;9.05;;
79624;SDS011;69101;45.534;10.218;2023-07-20T12:43:16;18.38;;;8.82;;
79624;SDS011;69101;45.534;10.218;2023-07-20T12:45:41;20.38;;;8.43;;
79624;SDS011;69101;45.534;10.218;2023-07-20T12:48:07;15.98;;;8.48;;
79624;SDS011;69101;45.534;10.218;2023-07-20T12:50:32;16.90;;;8.20;;
79624;SDS011;69101;45.534;10.218;2023-07-20T12:52:58;16.08;;;7.63;;
79624;SDS011;69101;45.534;10.218;2023-07-20T12:55:23;15.70;;;7.72;;
79624;SDS011;69101;45.534;10.218;2023-07-20T12:57:49;18.95;;;7.70;;
79624;SDS011;69101;45.534;10.218;2023-07-20T13:00:14;15.80;;;7.35;;
79624;SDS011;69101;45.534;10.218;2023-07-20T13:02:41;16.30;;;7.63;;
79624;SDS011;69101;45.534;10.218;2023-07-20T13:05:06;16.50;;;7.20;;
79624;SDS011;69101;45.534;10.218;2023-07-20T13:07:35;16.05;;;7.20;;
79624;SDS011;69101;45.534;10.218;2023-07-20T13:10:03;13.70;;;6.88;;
79624;SDS011;69101;45.534;10.218;2023-07-20T13:12:29;14.73;;;7.57;;
79624;SDS011;69101;45.534;10.218;2023-07-20T13:14:57;14.65;;;6.90;;
79624;SDS011;69101;45.534;10.218;2023-07-20T13:17:25;13.63;;;6.35;;
79624;SDS011;69101;45.534;10.218;2023-07-20T13:19:51;16.17;;;6.95;;
79624;SDS011;69101;45.534;10.218;2023-07-20T13:22:17;15.27;;;6.90;;
79624;SDS011;69101;45.534;10.218;2023-07-20T13:24:44;13.30;;;6.13;;
79624;SDS011;69101;45.534;10.218;2023-07-20T13:27:11;16.65;;;5.95;;
79624;SDS011;69101;45.534;10.218;2023-07-20T13:29:37;18.65;;;6.43;;
79624;SDS011;69101;45.534;10.218;2023-07-20T13:32:02;14.60;;;5.65;;
79624;SDS011;69101;45.534;10.218;2023-07-20T13:34:30;12.57;;;5.53;;
79624;SDS011;69101;45.534;10.218;2023-07-20T13:36:55;13.43;;;5.60;;
79624;SDS011;69101;45.534;10.218;2023-07-20T13:39:20;11.35;;;4.70;;
79624;SDS011;69101;45.534;10.218;2023-07-20T13:41:49;14.07;;;5.47;;
79624;SDS011;69101;45.534;10.218;2023-07-20T13:44:14;12.75;;;5.20;;
79624;SDS011;69101;45.534;10.218;2023-07-20T13:46:40;13.80;;;4.95;;
79624;SDS011;69101;45.534;10.218;2023-07-20T13:49:05;14.30;;;5.22;;
79624;SDS011;69101;45.534;10.218;2023-07-20T13:51:30;13.88;;;5.32;;
79624;SDS011;69101;45.534;10.218;2023-07-20T13:53:56;13.38;;;5.25;;
79624;SDS011;69101;45.534;10.218;2023-07-20T13:56:22;12.05;;;5.20;;
79624;SDS011;69101;45.534;10.218;2023-07-20T13:58:49;14.05;;;5.32;;
79624;SDS011;69101;45.534;10.218;2023-07-20T14:01:15;13.77;;;4.88;;
79624;SDS011;69101;45.534;10.218;2023-07-20T14:03:41;15.55;;;5.07;;
79624;SDS011;69101;45.534;10.218;2023-07-20T14:06:06;11.98;;;4.95;;
79624;SDS011;69101;45.534;10.218;2023-07-20T14:08:32;15.88;;;5.63;;
79624;SDS011;69101;45.534;10.218;2023-07-20T14:10:57;12.30;;;5.22;;
79624;SDS011;69101;45.534;10.218;2023-07-20T14:13:23;14.63;;;5.45;;
79624;SDS011;69101;45.534;10.218;2023-07-20T14:15:48;13.70;;;5.30;;
79624;SDS011;69101;45.534;10.218;2023-07-20T14:18:15;13.15;;;5.35;;
79624;SDS011;69101;45.534;10.218;2023-07-20T14:20:40;14.02;;;5.45;;
79624;SDS011;69101;45.534;10.218;2023-07-20T14:23:06;12.50;;;5.30;;
79624;SDS011;69101;45.534;10.218;2023-07-20T14:25:31;34.63;;;30.90;;
79624;SDS011;69101;45.534;10.218;2023-07-20T14:27:58;50.35;;;44.95;;
79624;SDS011;69101;45.534;10.218;2023-07-20T14:30:24;29.77;;;23.75;;
79624;SDS011;69101;45.534;10.218;2023-07-20T14:32:50;18.30;;;11.60;;
79624;SDS011;69101;45.534;10.218;2023-07-20T14:35:15;15.70;;;8.68;;
79624;SDS011;69101;45.534;10.218;2023-07-20T14:37:40;17.25;;;7.28;;